createdAt,value
2023-04-19T00:02:00.486Z,11.10
2023-04-19T00:04:30.170Z,9.53
2023-04-19T00:06:58.672Z,10.40
2023-04-19T00:09:28.207Z,9.57
2023-04-19T00:11:56.357Z,9.70
2023-04-19T00:14:24.500Z,8.73
2023-04-19T00:16:52.735Z,9.23
2023-04-19T00:19:21.712Z,9.70
2023-04-19T00:21:49.886Z,8.33
2023-04-19T00:24:18.087Z,8.10
2023-04-19T00:26:47.613Z,8.37
2023-04-19T00:29:15.750Z,8.40
2023-04-19T00:31:43.921Z,7.30
2023-04-19T00:34:12.302Z,7.77
2023-04-19T00:36:40.861Z,7.67
2023-04-19T00:39:09.020Z,7.30
2023-04-19T00:41:37.179Z,8.20
2023-04-19T00:44:06.776Z,7.00
2023-04-19T00:46:34.970Z,7.50
2023-04-19T00:49:03.182Z,7.67
2023-04-19T00:51:31.403Z,7.40
2023-04-19T00:53:59.876Z,7.13
2023-04-19T00:56:28.614Z,7.10
2023-04-19T00:58:57.096Z,7.10
2023-04-19T01:01:26.679Z,7.53
2023-04-19T01:03:55.299Z,6.80
2023-04-19T01:06:23.775Z,7.00
2023-04-19T01:08:51.951Z,7.30
2023-04-19T01:11:20.138Z,6.90
2023-04-19T01:13:48.323Z,6.57
2023-04-19T01:16:16.550Z,6.80
2023-04-19T01:18:46.246Z,6.30
2023-04-19T01:21:14.411Z,6.80
2023-04-19T01:23:43.910Z,6.43
2023-04-19T01:26:12.078Z,6.27
2023-04-19T01:28:40.240Z,5.97
2023-04-19T01:31:08.421Z,5.80
2023-04-19T01:33:36.606Z,6.07
2023-04-19T01:36:04.831Z,5.77
2023-04-19T01:38:32.992Z,5.30
2023-04-19T01:41:02.505Z,5.47
2023-04-19T01:43:30.679Z,6.00
2023-04-19T01:45:58.823Z,5.63
2023-04-19T01:48:26.987Z,4.93
2023-04-19T01:50:55.116Z,5.13
2023-04-19T01:53:23.284Z,4.87
2023-04-19T01:55:51.472Z,4.63
2023-04-19T01:58:20.976Z,4.83
2023-04-19T02:00:49.200Z,5.00
2023-04-19T02:03:17.572Z,4.77
2023-04-19T02:05:45.934Z,4.93
2023-04-19T02:08:14.116Z,5.20
2023-04-19T02:10:42.260Z,5.60
2023-04-19T02:13:10.410Z,7.80
2023-04-19T02:15:39.933Z,9.53
2023-04-19T02:18:08.258Z,8.50
2023-04-19T02:20:36.485Z,10.47
2023-04-19T02:23:04.677Z,10.23
2023-04-19T02:25:32.848Z,12.03
2023-04-19T02:28:01.075Z,10.70
2023-04-19T02:30:29.273Z,11.97
2023-04-19T02:32:59.037Z,11.20
2023-04-19T02:35:27.297Z,12.70
2023-04-19T02:37:55.477Z,12.43
2023-04-19T02:40:23.863Z,13.43
2023-04-19T02:42:52.059Z,12.47
2023-04-19T02:45:20.246Z,13.40
2023-04-19T02:47:48.449Z,12.20
2023-04-19T02:50:18.377Z,12.80
2023-04-19T02:52:46.542Z,13.67
2023-04-19T02:55:14.692Z,13.53
2023-04-19T02:57:42.874Z,13.53
2023-04-19T03:00:11.465Z,13.03
2023-04-19T03:02:40.057Z,13.70
2023-04-19T03:05:08.826Z,12.90
2023-04-19T03:07:38.340Z,13.40
2023-04-19T03:10:07.024Z,13.27
2023-04-19T03:12:35.327Z,14.13
2023-04-19T03:15:03.609Z,13.77
2023-04-19T03:17:31.862Z,14.20
2023-04-19T03:20:00.244Z,14.13
2023-04-19T03:22:28.417Z,14.53
2023-04-19T03:24:57.909Z,14.40
2023-04-19T03:27:26.062Z,13.23
2023-04-19T03:29:54.220Z,14.03
2023-04-19T03:32:22.429Z,13.83
2023-04-19T03:34:50.738Z,14.47
2023-04-19T03:37:18.926Z,13.90
2023-04-19T03:39:47.076Z,13.93
2023-04-19T03:42:16.585Z,14.63
2023-04-19T03:44:44.757Z,13.17
2023-04-19T03:47:12.948Z,13.57
2023-04-19T03:49:41.117Z,14.53
2023-04-19T03:52:09.328Z,14.83
2023-04-19T03:54:37.483Z,13.67
2023-04-19T03:57:05.841Z,14.33
2023-04-19T03:59:36.458Z,14.70
2023-04-19T04:02:05.035Z,15.07
2023-04-19T04:04:33.518Z,15.37
2023-04-19T04:07:02.385Z,14.97
2023-04-19T04:09:30.664Z,15.87
2023-04-19T04:11:58.851Z,16.73
2023-04-19T04:14:27.121Z,15.47
2023-04-19T04:16:56.629Z,16.07
2023-04-19T04:19:24.799Z,15.23
2023-04-19T04:21:52.921Z,16.70
2023-04-19T04:24:22.145Z,16.73
2023-04-19T04:26:51.423Z,16.60
2023-04-19T04:29:19.582Z,16.63
2023-04-19T04:31:47.791Z,16.07
2023-04-19T04:34:17.416Z,15.00
2023-04-19T04:36:45.763Z,17.00
2023-04-19T04:39:13.933Z,15.73
2023-04-19T04:41:42.389Z,16.40
2023-04-19T04:44:23.140Z,16.47
2023-04-19T04:46:51.391Z,16.17
2023-04-19T04:49:20.887Z,16.67
2023-04-19T04:51:49.030Z,17.27
2023-04-19T04:54:17.411Z,17.13
2023-04-19T04:56:45.743Z,16.57
2023-04-19T04:59:14.055Z,17.07
2023-04-19T05:01:42.276Z,17.57
2023-04-19T05:04:10.592Z,17.07
2023-04-19T05:06:41.440Z,16.37
2023-04-19T05:09:09.577Z,16.80
2023-04-19T05:11:37.883Z,16.50
2023-04-19T05:14:06.240Z,16.97
2023-04-19T05:16:34.625Z,17.20
2023-04-19T05:19:02.863Z,15.87
2023-04-19T05:21:31.550Z,17.13
2023-04-19T05:24:01.053Z,17.23
2023-04-19T05:26:29.212Z,16.23
2023-04-19T05:28:57.381Z,16.87
2023-04-19T05:31:25.661Z,16.67
2023-04-19T05:33:53.842Z,15.13
2023-04-19T05:36:22.000Z,15.33
2023-04-19T05:38:50.153Z,15.37
2023-04-19T05:41:19.686Z,14.20
2023-04-19T05:43:48.065Z,14.47
2023-04-19T05:46:16.273Z,13.70
2023-04-19T05:48:44.456Z,13.97
2023-04-19T05:51:12.636Z,14.90
2023-04-19T05:53:40.761Z,14.10
2023-04-19T05:56:09.303Z,14.20
2023-04-19T05:58:38.798Z,13.90
2023-04-19T06:01:07.237Z,13.33
2023-04-19T06:03:35.658Z,13.03
2023-04-19T06:06:04.058Z,12.53
2023-04-19T06:08:32.234Z,13.30
2023-04-19T06:11:05.174Z,13.03
2023-04-19T06:13:41.318Z,12.97
2023-04-19T06:16:10.164Z,12.97
2023-04-19T06:18:38.435Z,12.80
2023-04-19T06:21:07.116Z,12.93
2023-04-19T06:23:35.288Z,12.77
2023-04-19T06:26:03.585Z,12.57
2023-04-19T06:28:31.762Z,12.93
2023-04-19T06:31:01.648Z,12.13
2023-04-19T06:33:30.036Z,12.90
2023-04-19T06:35:58.211Z,13.00
2023-04-19T06:38:26.422Z,12.10
2023-04-19T06:40:54.589Z,12.47
2023-04-19T06:43:22.766Z,12.53
2023-04-19T06:45:50.936Z,11.13
2023-04-19T06:48:20.467Z,12.27
2023-04-19T06:50:48.614Z,11.30
2023-04-19T06:53:17.048Z,10.83
2023-04-19T06:55:46.234Z,12.43
2023-04-19T06:58:14.404Z,11.77
2023-04-19T07:00:42.634Z,12.17
2023-04-19T07:03:10.937Z,12.00
2023-04-19T07:05:41.521Z,12.27
2023-04-19T07:08:09.729Z,12.30
2023-04-19T07:10:37.878Z,13.07
2023-04-19T07:13:06.024Z,12.47
2023-04-19T07:15:34.198Z,13.07
2023-04-19T07:18:02.466Z,12.43
2023-04-19T07:20:31.468Z,13.27
2023-04-19T07:23:01.314Z,12.07
2023-04-19T07:25:29.551Z,12.23
2023-04-19T07:27:57.887Z,12.57
2023-04-19T07:30:26.140Z,11.80
2023-04-19T07:32:54.376Z,11.40
2023-04-19T07:35:22.612Z,12.10
2023-04-19T07:37:50.777Z,11.87
2023-04-19T07:40:20.280Z,10.73
2023-04-19T07:42:48.444Z,11.27
2023-04-19T07:45:16.784Z,9.80
2023-04-19T07:47:44.997Z,10.37
2023-04-19T07:50:13.367Z,9.70
2023-04-19T07:52:41.634Z,9.73
2023-04-19T07:55:10.252Z,10.63
2023-04-19T07:57:39.900Z,9.93
2023-04-19T08:00:10.847Z,9.33
2023-04-19T08:02:39.195Z,8.70
2023-04-19T08:05:09.105Z,9.20
2023-04-19T08:07:37.312Z,8.67
2023-04-19T08:10:05.891Z,8.00
2023-04-19T08:12:39.325Z,8.17
2023-04-19T08:15:37.558Z,7.67
2023-04-19T08:18:04.917Z,7.93
2023-04-19T08:20:33.366Z,8.37
2023-04-19T08:23:10.371Z,9.17
2023-04-19T08:25:42.778Z,9.67
2023-04-19T08:28:11.489Z,9.40
2023-04-19T08:30:41.799Z,8.93
2023-04-19T08:33:10.715Z,8.87
2023-04-19T08:35:40.874Z,8.33
2023-04-19T08:38:09.126Z,7.70
2023-04-19T08:40:37.411Z,7.20
2023-04-19T08:43:07.832Z,7.30
2023-04-19T08:45:36.323Z,8.17
2023-04-19T08:48:06.779Z,7.00
2023-04-19T08:50:45.591Z,8.03
2023-04-19T08:53:25.647Z,6.80
2023-04-19T08:56:08.790Z,7.13
2023-04-19T09:01:26.280Z,7.47
2023-04-19T09:04:17.273Z,7.70
2023-04-19T09:06:51.264Z,6.40
2023-04-19T09:09:34.877Z,7.37
2023-04-19T09:12:17.360Z,6.73
2023-04-19T09:14:59.858Z,7.17
2023-04-19T09:17:29.209Z,6.80
2023-04-19T09:19:59.220Z,7.20
2023-04-19T09:22:27.718Z,7.07
2023-04-19T09:27:28.126Z,7.10
2023-04-19T09:29:56.376Z,6.93
2023-04-19T09:32:24.801Z,6.87
2023-04-19T09:34:54.253Z,6.40
2023-04-19T09:39:55.401Z,6.23
2023-04-19T09:42:38.454Z,6.70
2023-04-19T09:45:29.400Z,6.67
2023-04-19T09:48:07.428Z,6.60
2023-04-19T09:50:46.814Z,7.03
2023-04-19T09:53:20.622Z,6.50
2023-04-19T09:56:00.582Z,6.83
2023-04-19T09:58:41.576Z,6.60
2023-04-19T10:01:17.810Z,6.50
2023-04-19T10:03:47.106Z,6.77
2023-04-19T10:06:40.070Z,6.30
2023-04-19T10:09:06.931Z,7.57
2023-04-19T10:11:38.729Z,7.00
2023-04-19T10:14:08.340Z,7.43
2023-04-19T10:16:37.015Z,6.10
2023-04-19T10:19:07.666Z,6.83
2023-04-19T10:21:37.504Z,6.30
2023-04-19T10:24:07.620Z,6.83
2023-04-19T10:26:51.021Z,6.70
2023-04-19T10:29:40.378Z,7.37
2023-04-19T10:32:08.972Z,6.23
2023-04-19T10:34:41.705Z,6.17
2023-04-19T10:37:11.978Z,6.23
2023-04-19T10:39:44.863Z,6.57
2023-04-19T10:42:13.922Z,5.90
2023-04-19T10:44:42.064Z,5.67
2023-04-19T10:47:10.331Z,5.77
2023-04-19T10:49:46.836Z,5.77
2023-04-19T10:52:29.547Z,5.50
2023-04-19T10:54:59.080Z,4.77
2023-04-19T10:57:27.952Z,5.40
2023-04-19T11:00:11.489Z,5.20
2023-04-19T11:02:39.774Z,4.90
2023-04-19T11:05:08.418Z,4.37
2023-04-19T11:07:40.854Z,5.40
2023-04-19T11:10:11.475Z,4.57
2023-04-19T11:12:43.538Z,4.30
2023-04-19T11:15:12.034Z,4.90
2023-04-19T11:17:42.473Z,4.67
2023-04-19T11:20:11.658Z,4.57
2023-04-19T11:22:40.750Z,4.77
2023-04-19T11:25:11.740Z,4.27
2023-04-19T11:27:40.107Z,4.47
2023-04-19T11:30:09.339Z,4.53
2023-04-19T11:32:37.615Z,3.87
2023-04-19T11:35:07.567Z,4.77
2023-04-19T11:37:36.487Z,4.37
2023-04-19T11:40:06.277Z,4.43
2023-04-19T11:42:36.833Z,4.47
2023-04-19T11:45:06.155Z,4.37
2023-04-19T11:47:37.403Z,4.23
2023-04-19T11:50:24.289Z,4.23
2023-04-19T11:52:52.432Z,4.53
2023-04-19T11:55:20.978Z,4.33
2023-04-19T11:57:50.990Z,4.80
2023-04-19T12:00:29.098Z,4.33
2023-04-19T12:02:57.425Z,4.27
2023-04-19T12:05:25.943Z,4.53
2023-04-19T12:08:01.398Z,4.30
2023-04-19T12:10:29.561Z,4.37
2023-04-19T12:12:59.171Z,4.60
2023-04-19T12:15:42.427Z,4.20
2023-04-19T12:18:10.717Z,4.03
2023-04-19T12:20:39.672Z,4.43
2023-04-19T12:23:11.098Z,4.03
2023-04-19T12:25:39.298Z,3.90
2023-04-19T12:28:08.874Z,4.50
2023-04-19T12:30:37.219Z,3.70
2023-04-19T12:33:05.999Z,3.80
2023-04-19T12:35:34.947Z,3.87
2023-04-19T12:38:03.638Z,3.73
2023-04-19T12:40:32.157Z,3.17
2023-04-19T12:43:00.342Z,3.07
2023-04-19T12:45:29.881Z,3.00
2023-04-19T12:47:58.079Z,3.47
2023-04-19T12:50:26.322Z,2.90
2023-04-19T12:52:54.507Z,3.03
2023-04-19T12:55:22.890Z,2.90
2023-04-19T12:57:51.090Z,3.00
2023-04-19T13:00:19.457Z,3.10
2023-04-19T13:02:49.247Z,3.43
2023-04-19T13:05:17.566Z,3.27
2023-04-19T13:07:45.864Z,2.90
2023-04-19T13:10:14.038Z,2.90
2023-04-19T13:12:42.240Z,3.10
2023-04-19T13:15:11.246Z,3.30
2023-04-19T13:17:39.469Z,3.00
2023-04-19T13:20:10.428Z,3.30
2023-04-19T13:22:38.623Z,3.27
2023-04-19T13:25:07.165Z,3.07
2023-04-19T13:27:35.316Z,2.80
2023-04-19T13:30:03.543Z,2.80
2023-04-19T13:32:32.407Z,2.70
2023-04-19T13:35:00.580Z,2.90
2023-04-19T13:37:30.574Z,2.70
2023-04-19T13:40:10.579Z,3.13
2023-04-19T13:42:43.399Z,2.70
2023-04-19T13:45:11.973Z,3.07
2023-04-19T13:47:40.254Z,2.90
2023-04-19T13:50:09.175Z,2.80
2023-04-19T13:52:38.717Z,2.67
2023-04-19T13:55:07.184Z,3.00
2023-04-19T13:57:35.480Z,2.60
2023-04-19T14:00:04.223Z,2.60
2023-04-19T14:02:32.602Z,2.97
2023-04-19T14:05:01.025Z,3.23
2023-04-19T14:07:29.202Z,3.50
2023-04-19T14:09:58.693Z,3.70
2023-04-19T14:12:27.070Z,3.77
2023-04-19T14:14:55.214Z,3.23
2023-04-19T14:17:23.380Z,2.60
2023-04-19T14:19:51.566Z,3.30
2023-04-19T14:22:19.720Z,3.20
2023-04-19T14:24:47.890Z,3.07
2023-04-19T14:27:17.378Z,3.13
2023-04-19T14:29:45.586Z,3.43
2023-04-19T14:32:25.228Z,3.10
2023-04-19T14:34:54.554Z,3.33
2023-04-19T14:37:23.191Z,3.03
2023-04-19T14:39:51.430Z,3.10
2023-04-19T14:42:22.859Z,2.90
2023-04-19T14:44:51.879Z,3.27
2023-04-19T14:47:20.952Z,3.17
2023-04-19T14:49:49.127Z,3.40
2023-04-19T14:52:17.383Z,3.33
2023-04-19T14:54:45.651Z,3.20
2023-04-19T14:57:14.794Z,3.10
2023-04-19T14:59:44.301Z,3.87
2023-04-19T15:02:13.417Z,3.10
2023-04-19T15:04:42.265Z,3.80
2023-04-19T15:07:10.917Z,3.80
2023-04-19T15:09:40.167Z,3.57
2023-04-19T15:12:08.457Z,3.60
2023-04-19T15:14:36.843Z,2.90
2023-04-19T15:17:06.393Z,3.50
2023-04-19T15:19:34.592Z,4.03
2023-04-19T15:22:04.064Z,3.67
2023-04-19T15:24:32.763Z,3.83
2023-04-19T15:27:01.525Z,3.93
2023-04-19T15:29:29.784Z,4.07
2023-04-19T15:31:57.981Z,4.20
2023-04-19T15:34:27.543Z,4.10
2023-04-19T15:36:57.253Z,3.53
2023-04-19T15:39:25.432Z,4.07
2023-04-19T15:41:53.637Z,3.73
2023-04-19T15:44:21.804Z,3.67
2023-04-19T15:46:50.013Z,3.60
2023-04-19T15:49:18.482Z,3.70
2023-04-19T15:51:48.266Z,3.73
2023-04-19T15:54:16.636Z,3.77
2023-04-19T15:56:44.780Z,3.90
2023-04-19T15:59:12.961Z,3.20
2023-04-19T16:01:41.364Z,3.27
2023-04-19T16:04:09.778Z,3.53
2023-04-19T16:06:38.146Z,3.90
2023-04-19T16:09:08.282Z,3.63
2023-04-19T16:11:36.615Z,3.83
2023-04-19T16:14:04.775Z,3.77
2023-04-19T16:16:34.443Z,3.83
2023-04-19T16:19:02.775Z,3.90
2023-04-19T16:21:31.530Z,4.07
2023-04-19T16:24:00.681Z,3.90
2023-04-19T16:26:30.208Z,3.47
2023-04-19T16:28:59.259Z,3.63
2023-04-19T16:31:27.615Z,4.00
2023-04-19T16:33:55.890Z,3.37
2023-04-19T16:36:24.098Z,3.87
2023-04-19T16:38:52.438Z,3.63
2023-04-19T16:41:20.649Z,3.63
2023-04-19T16:43:50.172Z,3.43
2023-04-19T16:46:18.425Z,3.60
2023-04-19T16:48:46.664Z,3.50
2023-04-19T16:51:14.852Z,3.30
2023-04-19T16:53:45.332Z,3.47
2023-04-19T16:56:13.565Z,3.40
2023-04-19T16:58:42.041Z,3.23
2023-04-19T17:01:11.597Z,3.60
2023-04-19T17:03:40.074Z,3.70
2023-04-19T17:06:08.515Z,3.50
2023-04-19T17:08:38.268Z,3.10
2023-04-19T17:11:06.510Z,3.13
2023-04-19T17:13:34.713Z,3.30
2023-04-19T17:16:02.918Z,3.00
2023-04-19T17:18:32.485Z,3.20
2023-04-19T17:21:00.808Z,3.33
2023-04-19T17:23:28.975Z,2.97
2023-04-19T17:25:57.143Z,3.27
2023-04-19T17:28:25.393Z,3.03
2023-04-19T17:30:53.595Z,3.23
2023-04-19T17:33:21.758Z,3.33
2023-04-19T17:35:51.492Z,2.97
2023-04-19T17:38:19.800Z,2.80
2023-04-19T17:40:48.011Z,3.07
2023-04-19T17:43:16.171Z,2.93
2023-04-19T17:45:44.366Z,2.83
2023-04-19T17:48:12.527Z,2.33
2023-04-19T17:50:40.912Z,2.90
2023-04-19T17:53:10.431Z,2.90
2023-04-19T17:55:38.746Z,2.83
2023-04-19T17:58:06.894Z,2.60
2023-04-19T18:00:35.132Z,2.50
2023-04-19T18:03:03.397Z,2.40
2023-04-19T18:05:31.727Z,2.70
2023-04-19T18:07:59.946Z,2.80
2023-04-19T18:10:29.680Z,2.70
2023-04-19T18:12:57.860Z,3.30
2023-04-19T18:15:26.064Z,2.90
2023-04-19T18:17:54.279Z,3.20
2023-04-19T18:20:22.553Z,3.20
2023-04-19T18:22:51.048Z,2.70
2023-04-19T18:25:19.374Z,3.13
2023-04-19T18:27:50.558Z,3.20
2023-04-19T18:30:18.743Z,3.07
2023-04-19T18:32:46.933Z,2.90
2023-04-19T18:35:15.151Z,2.90
2023-04-19T18:37:43.346Z,3.17
2023-04-19T18:40:12.321Z,2.63
2023-04-19T18:42:40.520Z,3.00
2023-04-19T18:45:11.043Z,2.60
2023-04-19T18:47:39.224Z,3.13
2023-04-19T18:50:08.429Z,2.47
2023-04-19T18:52:37.347Z,3.43
2023-04-19T18:55:06.213Z,3.00
2023-04-19T18:57:35.273Z,2.50
2023-04-19T19:00:05.827Z,2.80
2023-04-19T19:02:36.988Z,2.90
2023-04-19T19:05:07.448Z,2.73
2023-04-19T19:07:37.797Z,2.60
2023-04-19T19:10:18.596Z,2.40
2023-04-19T19:12:50.047Z,2.70
2023-04-19T19:15:18.649Z,2.67
2023-04-19T19:17:50.417Z,2.63
2023-04-19T19:20:19.408Z,3.00
2023-04-19T19:22:48.096Z,2.70
2023-04-19T19:25:16.288Z,2.40
2023-04-19T19:27:58.419Z,2.80
2023-04-19T19:30:33.862Z,2.80
2023-04-19T19:33:04.799Z,2.80
2023-04-19T19:35:33.379Z,2.20
2023-04-19T19:38:01.737Z,2.97
2023-04-19T19:40:32.503Z,2.80
2023-04-19T19:43:01.236Z,2.93
2023-04-19T19:45:29.573Z,2.90
2023-04-19T19:47:59.104Z,2.60
2023-04-19T19:53:01.740Z,2.80
2023-04-19T19:55:29.950Z,2.53
2023-04-19T20:02:59.650Z,2.43
2023-04-19T20:05:29.652Z,2.80
2023-04-19T20:08:07.799Z,2.47
2023-04-19T20:10:36.430Z,2.03
2023-04-19T20:13:06.163Z,2.10
2023-04-19T20:15:34.547Z,2.30
2023-04-19T20:18:03.347Z,2.50
2023-04-19T20:20:33.245Z,2.43
2023-04-19T20:23:01.088Z,2.43
2023-04-19T20:25:31.099Z,2.70
2023-04-19T20:27:59.192Z,2.33
2023-04-19T20:30:27.145Z,2.73
2023-04-19T20:32:55.114Z,2.17
2023-04-19T20:35:23.234Z,2.43
2023-04-19T20:37:52.512Z,2.40
2023-04-19T20:40:20.365Z,2.47
2023-04-19T20:42:48.441Z,2.80
2023-04-19T20:45:16.305Z,3.03
2023-04-19T20:47:44.166Z,2.83
2023-04-19T20:50:12.310Z,2.50
2023-04-19T20:52:40.440Z,2.47
2023-04-19T20:55:10.517Z,2.80
2023-04-19T20:57:38.363Z,2.60
2023-04-19T21:00:09.287Z,2.57
2023-04-19T21:02:37.405Z,2.80
2023-04-19T21:05:05.854Z,2.87
2023-04-19T21:07:33.767Z,2.53
2023-04-19T21:10:01.585Z,2.77
2023-04-19T21:12:30.822Z,3.00
2023-04-19T21:14:58.641Z,2.47
2023-04-19T21:17:27.052Z,2.90
2023-04-19T21:19:54.926Z,2.50
2023-04-19T21:22:22.801Z,3.00
2023-04-19T21:24:50.726Z,3.00
2023-04-19T21:27:18.650Z,2.93
2023-04-19T21:29:47.845Z,2.90
2023-04-19T21:32:15.664Z,2.77
2023-04-19T21:34:44.578Z,2.70
2023-04-19T21:37:12.430Z,2.57
2023-04-19T21:39:40.329Z,3.23
2023-04-19T21:42:08.148Z,2.80
2023-04-19T21:44:36.265Z,3.20
2023-04-19T21:47:05.553Z,3.00
2023-04-19T21:49:33.484Z,3.00
2023-04-19T21:52:01.361Z,2.80
2023-04-19T21:54:34.056Z,3.07
2023-04-19T21:57:02.900Z,3.10
2023-04-19T21:59:31.292Z,3.37
2023-04-19T22:01:59.965Z,3.30
2023-04-19T22:04:30.681Z,3.60
2023-04-19T22:07:01.848Z,3.17
2023-04-19T22:09:30.005Z,3.30
2023-04-19T22:11:57.933Z,3.53
2023-04-19T22:14:25.742Z,2.97
2023-04-19T22:16:54.915Z,3.30
2023-04-19T22:19:24.742Z,2.90
2023-04-19T22:21:55.034Z,3.60
2023-04-19T22:24:23.077Z,3.27
2023-04-19T22:26:52.864Z,2.97
2023-04-19T22:29:21.030Z,3.00
2023-04-19T22:31:48.985Z,3.27
2023-04-19T22:34:16.928Z,2.90
2023-04-19T22:36:45.111Z,3.40
2023-04-19T22:39:15.867Z,3.03
2023-04-19T22:41:44.142Z,3.47
2023-04-19T22:44:12.095Z,2.97
2023-04-19T22:46:40.020Z,3.10
2023-04-19T22:49:10.082Z,3.37
2023-04-19T22:51:38.320Z,3.27
2023-04-19T22:54:06.318Z,3.60
2023-04-19T22:56:35.550Z,3.50
2023-04-19T22:59:03.388Z,3.40
2023-04-19T23:01:31.484Z,3.50
2023-04-19T23:03:59.596Z,3.60
2023-04-19T23:06:28.902Z,3.50
2023-04-19T23:08:56.820Z,3.47
2023-04-19T23:11:25.827Z,3.67
2023-04-19T23:13:55.270Z,3.70
2023-04-19T23:16:24.546Z,4.17
2023-04-19T23:18:52.659Z,3.63
2023-04-19T23:21:20.563Z,3.73
2023-04-19T23:23:48.404Z,3.80
2023-04-19T23:26:16.242Z,3.70
2023-04-19T23:28:44.172Z,3.70
2023-04-19T23:31:13.411Z,3.87
2023-04-19T23:33:41.296Z,3.53
2023-04-19T23:36:09.645Z,3.53
2023-04-19T23:38:37.474Z,3.83
2023-04-19T23:41:05.438Z,3.60
2023-04-19T23:43:33.253Z,3.27
2023-04-19T23:46:01.197Z,3.83
2023-04-19T23:48:30.586Z,3.93
2023-04-19T23:50:58.427Z,3.63
2023-04-19T23:53:26.329Z,3.70
2023-04-19T23:55:54.218Z,3.13
2023-04-19T23:58:22.064Z,3.70
